createdAt,value
2023-02-22T07:09:28.625Z,8.82
2023-02-22T07:14:30.663Z,9.67
2023-02-22T07:19:32.704Z,10.05
2023-02-22T07:24:35.250Z,9.02
2023-02-22T07:29:37.309Z,7.30
2023-02-22T07:34:42.858Z,10.10
2023-02-22T07:39:45.322Z,8.27
2023-02-22T07:44:47.365Z,9.90
2023-02-22T07:49:50.256Z,8.60
2023-02-22T07:54:52.394Z,8.38
2023-02-22T07:59:54.677Z,11.60
2023-02-22T08:04:56.725Z,10.33
2023-02-22T08:09:58.805Z,7.95
2023-02-22T08:15:00.937Z,7.78
2023-02-22T08:20:03.264Z,7.90
2023-02-22T08:25:06.459Z,9.13
2023-02-22T08:30:11.360Z,9.98
2023-02-22T08:35:15.387Z,10.25
2023-02-22T08:40:19.597Z,9.53
2023-02-22T08:45:21.689Z,12.25
2023-02-22T08:50:29.455Z,9.02
2023-02-22T08:55:38.202Z,11.57
2023-02-22T09:00:41.310Z,12.10
2023-02-22T09:05:44.538Z,9.25
2023-02-22T09:10:47.108Z,11.63
2023-02-22T09:15:49.230Z,10.17
2023-02-22T09:20:52.297Z,9.65
2023-02-22T09:25:54.550Z,9.38
2023-02-22T09:30:56.602Z,12.93
2023-02-22T09:36:00.845Z,10.10
2023-02-22T09:41:34.526Z,8.45
2023-02-22T09:46:45.738Z,17.23
2023-02-22T09:51:53.156Z,9.00
2023-02-22T09:56:58.621Z,10.25
2023-02-22T10:02:14.358Z,9.43
2023-02-22T10:07:48.891Z,10.70
2023-02-22T10:13:10.217Z,10.70
2023-02-22T10:18:33.559Z,11.07
2023-02-22T10:23:50.472Z,11.17
2023-02-22T10:29:01.203Z,14.75
2023-02-22T10:34:07.660Z,12.63
2023-02-22T10:39:30.585Z,11.07
2023-02-22T10:44:34.166Z,12.15
2023-02-22T10:49:41.146Z,9.70
2023-02-22T10:54:48.100Z,10.30
2023-02-22T10:59:52.014Z,13.07
2023-02-22T11:04:57.003Z,11.00
2023-02-22T11:10:05.333Z,11.40
2023-02-22T11:15:16.434Z,12.83
2023-02-22T11:20:25.680Z,11.73
2023-02-22T11:25:32.741Z,11.38
2023-02-22T11:30:36.278Z,13.37
2023-02-22T11:36:00.124Z,10.68
2023-02-22T11:41:27.584Z,10.77
2023-02-22T11:46:35.021Z,10.23
2023-02-22T11:52:06.623Z,12.80
2023-02-22T11:57:27.176Z,12.48
2023-02-22T12:02:57.373Z,12.52
2023-02-22T12:08:35.649Z,11.17
2023-02-22T12:13:50.881Z,12.07
2023-02-22T12:19:11.434Z,15.90
2023-02-22T12:24:19.404Z,12.00
2023-02-22T12:29:39.563Z,11.52
2023-02-22T12:35:05.438Z,10.65
2023-02-22T12:40:18.536Z,16.97
2023-02-22T12:45:57.906Z,12.83
2023-02-22T12:51:25.350Z,12.32
2023-02-22T12:56:35.515Z,14.70
2023-02-22T13:01:51.007Z,13.63
2023-02-22T13:07:07.056Z,14.55
2023-02-22T13:12:14.954Z,15.55
2023-02-22T13:17:37.647Z,14.27
2023-02-22T13:22:58.232Z,13.40
2023-02-22T13:28:10.478Z,13.57
2023-02-22T13:33:41.733Z,16.17
2023-02-22T13:38:54.084Z,14.80
2023-02-22T13:44:33.353Z,18.17
2023-02-22T13:49:35.925Z,19.87
2023-02-22T13:54:42.322Z,15.40
2023-02-22T13:59:47.136Z,15.75
2023-02-22T14:04:49.216Z,14.73
2023-02-22T14:09:56.534Z,14.30
2023-02-22T14:15:26.786Z,14.52
2023-02-22T14:20:36.006Z,16.08
2023-02-22T14:25:42.068Z,15.53
2023-02-22T14:30:44.227Z,16.00
2023-02-22T14:35:50.161Z,13.07
2023-02-22T14:40:54.440Z,15.52
2023-02-22T14:46:00.309Z,13.73
2023-02-22T14:51:19.258Z,12.52
2023-02-22T14:56:28.585Z,15.50
2023-02-22T15:01:48.881Z,13.30
2023-02-22T15:06:57.319Z,14.07
2023-02-22T15:12:05.883Z,13.55
2023-02-22T15:17:16.779Z,13.43
2023-02-22T15:22:22.781Z,14.77
2023-02-22T15:27:25.028Z,11.65
2023-02-22T15:32:31.668Z,13.62
2023-02-22T15:37:33.757Z,11.90
2023-02-22T15:42:46.119Z,12.45
2023-02-22T15:47:54.951Z,12.95
2023-02-22T15:53:05.668Z,13.87
2023-02-22T15:58:28.753Z,13.30
2023-02-22T16:03:53.363Z,10.45
2023-02-22T16:08:59.304Z,13.30
2023-02-22T16:14:05.311Z,10.47
2023-02-22T16:19:25.755Z,10.45
2023-02-22T16:24:30.478Z,16.98
2023-02-22T16:29:32.647Z,12.87
2023-02-22T16:34:34.937Z,15.25
2023-02-22T16:39:37.395Z,12.50
2023-02-22T16:44:39.449Z,11.80
2023-02-22T16:49:41.530Z,13.82
2023-02-22T16:54:45.427Z,16.33
2023-02-22T16:59:52.092Z,14.27
2023-02-22T17:04:54.200Z,13.57
2023-02-22T17:10:00.235Z,16.55
2023-02-22T17:15:04.008Z,14.45
2023-02-22T17:20:11.551Z,14.17
2023-02-22T17:25:24.126Z,14.48
2023-02-22T17:30:26.889Z,16.73
2023-02-22T17:35:31.021Z,16.40
2023-02-22T17:40:38.355Z,25.20
2023-02-22T17:45:41.607Z,23.35
2023-02-22T17:50:46.522Z,25.00
2023-02-22T17:55:49.491Z,22.97
2023-02-22T18:00:53.304Z,18.87
2023-02-22T18:05:58.702Z,20.55
2023-02-22T18:11:05.278Z,19.03
2023-02-22T18:16:08.211Z,20.65
2023-02-22T18:21:10.374Z,22.70
2023-02-22T18:26:21.590Z,21.53
2023-02-22T18:31:24.106Z,16.90
2023-02-22T18:36:26.257Z,17.25
2023-02-22T18:41:28.749Z,11.03
2023-02-22T18:46:30.892Z,16.20
2023-02-22T18:51:33.024Z,17.85
2023-02-22T18:56:35.085Z,17.70
2023-02-22T19:01:39.120Z,16.10
2023-02-22T19:06:43.124Z,21.30
2023-02-22T19:11:46.590Z,17.30
2023-02-22T19:16:50.767Z,20.73
2023-02-22T19:21:52.868Z,17.67
2023-02-22T19:26:57.558Z,18.15
2023-02-22T19:31:59.814Z,17.97
2023-02-22T19:37:01.939Z,17.03
2023-02-22T19:42:06.094Z,18.80
2023-02-22T19:47:10.089Z,18.90
2023-02-22T19:52:12.263Z,18.97
2023-02-22T19:57:14.449Z,15.85
2023-02-22T20:02:17.726Z,13.80
2023-02-22T20:07:19.825Z,15.67
2023-02-22T20:12:22.093Z,12.63
2023-02-22T20:17:25.527Z,15.02
2023-02-22T20:22:27.600Z,17.23
2023-02-22T20:27:29.755Z,16.10
2023-02-22T20:32:32.366Z,15.23
2023-02-22T20:37:35.571Z,18.95
2023-02-22T20:42:37.763Z,18.87
2023-02-22T20:47:39.841Z,17.40
2023-02-22T20:52:41.992Z,19.67
